Flight Track Log - Related Links

Times and Time Zones

All times are in EDT time to prevent confusion due to time zone crossing. See the KAP444 flight status page for this flight to view local times or setup timezone preferences in your user account.

Time Position Orientation Groundspeed Altitude Reporting Facility
EDT Latitude Longitude Course Direction KTS MPH feet Rate Location/Type
Thu 05:23:05 PM 42.3667 -71.0167 270° West 101 116 400  Level KA90
Thu 05:23:35 PM 42.3667 -71.0333 270° West 113 130 1,000 867 Climbing KA90
Thu 05:24:35 PM 42.3333 -71.0333 180° South 125 144 1,700 600 Climbing KA90
Thu 05:25:35 PM 42.3000 -71.0500 200° South 132 152 2,200 500 Climbing KA90
Thu 05:26:35 PM 42.2500 -71.0500 180° South 147 169 2,700 500 Climbing KA90
Thu 05:27:35 PM 42.2167 -71.0167 143° Southeast 151 174 3,200 500 Climbing KA90
Thu 05:28:35 PM 42.1833 -70.9833 143° Southeast 152 175 3,700 450 Climbing KA90
Thu 05:29:35 PM 42.1500 -70.9500 143° Southeast 149 171 4,100 500 Climbing KA90
Thu 05:30:35 PM 42.1167 -70.9167 143° Southeast 150 173 4,700 600 Climbing KA90
Thu 05:32:00 PM 42.0754 -70.8750 143° Southeast  Level Estimated
Thu 05:39:00 PM 41.8710 -70.6701 143° Southeast  Level Estimated
Thu 05:40:00 PM 41.8418 -70.6409 143° Southeast  Level Estimated
Thu 05:41:00 PM 41.8126 -70.6118 143° Southeast  Level Estimated
Thu 05:42:00 PM 41.7834 -70.5827 143° Southeast  Level Estimated
Thu 05:43:00 PM 41.7541 -70.5536 143° Southeast  Level Estimated
Thu 05:44:00 PM 41.7249 -70.5245 143° Southeast  Level Estimated
Thu 05:45:00 PM 41.6956 -70.4955 143° Southeast  Level Estimated
Thu 05:46:00 PM 41.6664 -70.4665 143° Southeast  Level Estimated
Thu 05:47:00 PM 41.6371 -70.4375 143° Southeast  Level Estimated
Thu 05:48:00 PM 41.6078 -70.4085 144° Southeast  Level Estimated
Thu 05:49:00 PM 41.5785 -70.3796 144° Southeast  Level Estimated
Thu 05:50:00 PM 41.5492 -70.3507 144° Southeast  Level Estimated
Thu 05:51:00 PM 41.5199 -70.3218 144° Southeast  Level Estimated
Thu 05:52:00 PM 41.4906 -70.2929 144° Southeast  Level Estimated
Thu 05:53:00 PM 41.4613 -70.2641 144° Southeast  Level Estimated
Thu 05:54:00 PM 41.4320 -70.2353 144° Southeast  Level Estimated
Thu 05:55:00 PM 41.4027 -70.2065 144° Southeast  Level Estimated
Thu 05:56:00 PM 41.3733 -70.1778 144° Southeast  Level Estimated
Thu 05:57:00 PM 41.3440 -70.1491 144° Southeast  Level Estimated
Thu 05:58:00 PM 41.3146 -70.1204 144° Southeast  Level Estimated
Thu 05:59:00 PM 41.2853 -70.0917 144° Southeast  Level Estimated
Thu 06:00:00 PM 41.2559 -70.0630 144° Southeast  Level Estimated
Thu 06:01:00 PM 41.2531 -70.0603 144° Southeast  Level Estimated
Thu 06:02:00 PM 41.2531 -70.0603 72° East  Level Estimated
Thu 06:03:00 PM 41.2531 -70.0603 72° East  Level Estimated
Thu 06:04:00 PM 41.2531 -70.0603 72° East  Level Estimated
Thu 06:05:00 PM 41.2531 -70.0603 72° East  Level Estimated
Thu 06:06:00 PM 41.2531 -70.0603 72° East  Level Estimated
Thu 06:07:00 PM 41.2531 -70.0603 72° East  Level Estimated
Thu 06:08:00 PM 41.2531 -70.0603 72° East  Level Estimated
Thu 06:09:00 PM 41.2531 -70.0603 72° East  Level Estimated
Thu 06:10:00 PM 41.2531 -70.0603 72° East  Level Estimated
Thu 06:11:00 PM 41.2531 -70.0603 72° East  Level Estimated
Thu 06:12:00 PM 41.2531 -70.0603 72° East  Level Estimated
Thu 06:13:00 PM 41.2531 -70.0603 72° East  Level Estimated
Thu 06:14:00 PM 41.2531 -70.0603 72° East  Level Estimated
Thu 06:15:00 PM 41.2531 -70.0603 72° East  Level Estimated
Thu 06:16:00 PM 41.2531 -70.0603 72° East  Level Estimated
Thu 06:17:00 PM 41.2531 -70.0603 72° East  Level Estimated
Thu 06:18:00 PM 41.2531 -70.0603 72° East  Level Estimated
Thu 06:19:00 PM 41.2531 -70.0603 72° East  Level Estimated
Thu 06:20:00 PM 41.2531 -70.0603 72° East  Level Estimated
Thu 06:21:00 PM 41.2531 -70.0603 72° East  Level Estimated

Login

Don't have an account? Register now (free) for customized features, flight alerts, and more!